Stonington, ME (04645)

11:26 AM EDT on July 28, 2016 (GMT -0400)
APRSWXNET | | Change Station

Elev 36 ft 44.08 °N, 68.63 °W | Updated 30 minutes ago

Clear
Clear
75 °F
Feels Like 75 °F
N
6
Wind Variable Wind from WSW
Gusts 13.0 mph

Today
High -- | Low -- °F
--% Chance of Precip.
Yesterday
High -- | Low -- °F
Precip. -- in
Pressure 29.90 in
Visibility 10.0 miles
Clouds Clear
Heat Index 75 °F
Dew Point 69 °F
Humidity 83%
Rainfall in
Snow Depth Not available.
5:18 AM 8:02 PM
Waning Crescent, 31% visible
METAR KRKD 281456Z AUTO 16008KT 10SM CLR 23/21 A2989 RMK AO2 SLP123 T02330206 56002
Pressure 29.90 in
Visibility 10.0 miles
Clouds Clear
Heat Index 75 °F
Dew Point 69 °F
Humidity 83%
Rainfall in
Snow Depth Not available.
5:18 AM 8:02 PM
Waning Crescent, 31% visible
METAR KRKD 281456Z AUTO 16008KT 10SM CLR 23/21 A2989 RMK AO2 SLP123 T02330206 56002

10-Day Weather Forecast

Almanac

Astronomy

Jul. 28, 2016 Rise Set
Actual Time
Civil Twilight
Nautical Twilight
Astronomical Twilight
Moon
Length of Visible Light
Length of Day
Tomorrow will be .
, % of the Moon is Illuminated

Today's Extremes

State Highs State Lows

Community

WunderPhotos

Upload Photos

1,928,124 photos uploaded!

WunderBlog® & News

Nearby

Air Quality

  Air Quality AQ Index Pollutant
Not available.

Snow Depth

Station Depth Elevation

Earthquake Activity

City Distance Mag. Time & Date
Minimum magnitude displayed is 2.5.

Coastal Water Temperatures

Place Temperature

Stations

Nearby Weather Stations

Station Location Temp. Windchill Dew Point Humidity Wind Precip. Elev Updated Type
                   

Watches & Warnings

There are currently no watches in effect.